Terminal Aerodrome Forecast
Issued by NWS Central Illinois

Home | Current Version | Previous Version | Text Only | Print | Product List | Glossary On
Versions: 1 2 3 4 5 6 7 8 9 10 11 12 13 14 15 16 17 18 19
086
FTUS43 KILX 232327
TAFPIA
TAF
KPIA 232327Z 2400/2424 32005KT P6SM OVC020
     FM240900 VRB03KT 2SM BR OVC008
     FM241500 14005KT P6SM BKN015
     FM241800 14006KT P6SM BKN040
     FM242100 13012G21KT P6SM BKN080=

USA.gov is the U.S. government's official web portal to all federal, state and local government web resources and services.